Figment — WDF5702 — position and weather

sailwx.info

Track history (hours):
 
Tides and Currents Weather Stations Pressure Air Temp Water Temp Dewpoint Dewpoint Depression Visibility Wind Speed Wind Dir Waves Ship Positions

Figment

Owner: Gillings, Donald W, Edwardsville, IL. More information available from US FCC via Universal Licensing System and Coast Guard Vessel Documentation Center.

Last reported at 2017-Oct-02 20:20 UTC. Time now 2017-Oct-18 11:19 UTC.
Position N 32°44' W 117°17'.
Warning: this ship's position is 15 days out of date.

Length 14 m.

Type: Pleasure craft. MMSI: 367466310.

Date/timePositionNaut miles runAvg speedWind from/ knotsBaromVisibWave heightAir tempDewpointWater temp
2017-Oct-02 20:20N 32°44' W 117°17'2 6.2
2017-Oct-02 19:56N 32°47' W 117°18'3 6.1
2017-Oct-02 19:30N 32°49' W 117°18'3 6.0
2017-Oct-02 19:00N 32°52' W 117°19'3 6.2
2017-Oct-02 18:30N 32°55' W 117°20'3 6.1
2017-Oct-02 18:00N 32°58' W 117°20'3 6.0
2017-Oct-02 17:30N 33°01' W 117°21'3 6.0
2017-Oct-02 17:00N 33°04' W 117°22'3 6.2
2017-Oct-02 16:30N 33°07' W 117°23'3 6.4
2017-Oct-02 16:00N 33°10' W 117°24'2 4.5
2017-Oct-02 15:29N 33°12' W 117°24'0 0.0
2017-Oct-02 14:56N 33°12' W 117°24'0 0.0
2017-Oct-02 14:29N 33°12' W 117°24'0 0.0
2017-Oct-02 13:53N 33°12' W 117°24'0 0.0
2017-Oct-02 13:11N 33°12' W 117°24'0 0.0
2017-Oct-02 12:59N 33°12' W 117°24'0 0.0
2017-Oct-02 12:23N 33°12' W 117°24'0 0.0
2017-Oct-02 11:47N 33°12' W 117°24'0 0.0
2017-Oct-02 11:29N 33°12' W 117°24'0 0.0
2017-Oct-02 10:59N 33°12' W 117°24'0 0.0
2017-Oct-02 09:41N 33°12' W 117°24'0 0.0
2017-Oct-02 09:29N 33°12' W 117°24'0 0.0
2017-Oct-02 07:59N 33°12' W 117°24'0 0.0
2017-Oct-02 07:29N 33°12' W 117°24'0 0.0
2017-Oct-02 06:53N 33°12' W 117°24'0 0.0
2017-Oct-02 06:17N 33°12' W 117°24'0 0.0
2017-Oct-02 05:59N 33°12' W 117°24'0 0.0
2017-Oct-02 05:17N 33°12' W 117°24'0 0.0
2017-Oct-02 04:41N 33°12' W 117°24'0 0.0
2017-Oct-02 03:08N 33°12' W 117°24'0 0.0
2017-Oct-02 02:59N 33°12' W 117°24'0 0.0
2017-Oct-02 02:17N 33°12' W 117°24'0 0.0
2017-Oct-02 01:59N 33°12' W 117°24'0 0.0
2017-Oct-02 01:29N 33°12' W 117°24'0 0.0
2017-Oct-02 00:47N 33°12' W 117°24'0 0.0
2017-Oct-02 00:23N 33°12' W 117°24'0 0.0
2017-Oct-01 23:53N 33°12' W 117°24'0 0.7
2017-Oct-01 23:26N 33°12' W 117°24'3 6.0
2017-Oct-01 23:00N 33°14' W 117°27'4 6.9
2017-Oct-01 22:29N 33°16' W 117°30'3 6.9
2017-Oct-01 22:00N 33°18' W 117°33'4 6.8
2017-Oct-01 21:29N 33°21' W 117°36'  
2017-Sep-28 22:20N 33°58' W 118°30'2 7.0
2017-Sep-28 21:59N 33°58' W 118°33'22 7.0
2017-Sep-28 18:55N 34°02' W 118°59'3 6.7
2017-Sep-28 18:27N 34°03' W 119°02'9 6.6
2017-Sep-28 17:08N 34°07' W 119°12'3 0.2
2017-Sep-27 23:24N 34°10' W 119°13'1 2.4
2017-Sep-27 22:50N 34°10' W 119°15'3 6.3
2017-Sep-27 22:25N 34°11' W 119°18'3 5.9
2017-Sep-27 21:58N 34°13' W 119°20'3 6.4
2017-Sep-27 21:26N 34°15' W 119°24'3 6.5
2017-Sep-27 20:58N 34°17' W 119°27'3 6.5
2017-Sep-27 20:28N 34°18' W 119°30'4 6.5
2017-Sep-27 19:54N 34°20' W 119°33'3 6.4
2017-Sep-27 19:30N 34°22' W 119°36'3 6.2
2017-Sep-27 18:58N 34°24' W 119°39'1 0.8
2017-Sep-27 17:22N 34°25' W 119°41'0 0.0
2017-Sep-27 15:16N 34°25' W 119°41'0 0.0
2017-Sep-27 14:55N 34°25' W 119°41'0 0.0
2017-Sep-27 14:19N 34°25' W 119°41'0 0.0
2017-Sep-27 12:43N 34°25' W 119°41'0 0.0
2017-Sep-27 07:25N 34°25' W 119°41'0 0.0
2017-Sep-27 04:46N 34°25' W 119°41'0 0.0
2017-Sep-27 01:58N 34°25' W 119°41'2 4.8
2017-Sep-27 01:28N 34°23' W 119°43'3 7.0
2017-Sep-27 00:59N 34°23' W 119°47'5 7.0
2017-Sep-27 00:20N 34°24' W 119°53'3 7.0
2017-Sep-26 23:57N 34°24' W 119°56'4 7.0
2017-Sep-26 23:25N 34°24' W 120°00'4 7.3
2017-Sep-26 22:55N 34°24' W 120°05'4 7.6
2017-Sep-26 22:24N 34°25' W 120°09'3 7.4
2017-Sep-26 21:56N 34°25' W 120°14'4 7.0
2017-Sep-26 21:24N 34°25' W 120°18'3 7.0
2017-Sep-26 21:00N 34°25' W 120°21'3 6.8
2017-Sep-26 20:29N 34°26' W 120°26'3 6.3
2017-Sep-26 20:00N 34°27' W 120°29'5 6.3
2017-Sep-26 19:09N 34°30' W 120°35'1 6.7
2017-Sep-26 18:59N 34°30' W 120°36'12 6.5
2017-Sep-26 17:09N 34°41' W 120°41'1 7.3
2017-Sep-26 16:59N 34°43' W 120°41'3 7.3
2017-Sep-26 16:30N 34°46' W 120°42'4 7.5
2017-Sep-26 15:58N 34°50' W 120°42'3 6.9
2017-Sep-26 15:30N 34°53' W 120°43'13 5.7
2017-Sep-26 13:14N 35°06' W 120°44'2 6.6
2017-Sep-26 12:59N 35°08' W 120°44'105 2.2
2017-Sep-24 13:02N 36°36' W 121°54'0 0.0
2017-Sep-24 12:56N 36°36' W 121°54'0 0.0
2017-Sep-24 11:32N 36°36' W 121°54'0 0.0
2017-Sep-24 11:26N 36°36' W 121°54'0 0.0
2017-Sep-24 10:44N 36°36' W 121°54'0 0.0
2017-Sep-24 10:02N 36°36' W 121°54'0 0.0
2017-Sep-24 06:02N 36°36' W 121°54'0 0.0
2017-Sep-23 21:46N 36°36' W 121°54'0 0.0
2017-Sep-23 21:16N 36°36' W 121°54'0 0.0
2017-Sep-23 20:28N 36°36' W 121°54'0 0.0
2017-Sep-23 19:40N 36°36' W 121°54'  
Track history (hours):
 
Tides and Currents Weather Stations Pressure Air Temp Water Temp Dewpoint Dewpoint Depression Visibility Wind Speed Wind Dir Waves Ship Positions

Figment

Owner: Gillings, Donald W, Edwardsville, IL. More information available from US FCC via Universal Licensing System and Coast Guard Vessel Documentation Center.

Last reported at 2017-Oct-02 20:20 UTC. Time now 2017-Oct-18 11:19 UTC.
Position N 32°44' W 117°17'.
Warning: this ship's position is 15 days out of date.

Length 14 m.

Type: Pleasure craft. MMSI: 367466310.

Date/timePositionNaut miles runAvg speedWind from/ knotsBaromVisibWave heightAir tempDewpointWater temp
2017-Oct-02 20:20N 32°44' W 117°17'2 6.2
2017-Oct-02 19:56N 32°47' W 117°18'3 6.1
2017-Oct-02 19:30N 32°49' W 117°18'3 6.0
2017-Oct-02 19:00N 32°52' W 117°19'3 6.2
2017-Oct-02 18:30N 32°55' W 117°20'3 6.1
2017-Oct-02 18:00N 32°58' W 117°20'3 6.0
2017-Oct-02 17:30N 33°01' W 117°21'3 6.0
2017-Oct-02 17:00N 33°04' W 117°22'3 6.2
2017-Oct-02 16:30N 33°07' W 117°23'3 6.4
2017-Oct-02 16:00N 33°10' W 117°24'2 4.5
2017-Oct-02 15:29N 33°12' W 117°24'0 0.0
2017-Oct-02 14:56N 33°12' W 117°24'0 0.0
2017-Oct-02 14:29N 33°12' W 117°24'0 0.0
2017-Oct-02 13:53N 33°12' W 117°24'0 0.0
2017-Oct-02 13:11N 33°12' W 117°24'0 0.0
2017-Oct-02 12:59N 33°12' W 117°24'0 0.0
2017-Oct-02 12:23N 33°12' W 117°24'0 0.0
2017-Oct-02 11:47N 33°12' W 117°24'0 0.0
2017-Oct-02 11:29N 33°12' W 117°24'0 0.0
2017-Oct-02 10:59N 33°12' W 117°24'0 0.0
2017-Oct-02 09:41N 33°12' W 117°24'0 0.0
2017-Oct-02 09:29N 33°12' W 117°24'0 0.0
2017-Oct-02 07:59N 33°12' W 117°24'0 0.0
2017-Oct-02 07:29N 33°12' W 117°24'0 0.0
2017-Oct-02 06:53N 33°12' W 117°24'0 0.0
2017-Oct-02 06:17N 33°12' W 117°24'0 0.0
2017-Oct-02 05:59N 33°12' W 117°24'0 0.0
2017-Oct-02 05:17N 33°12' W 117°24'0 0.0
2017-Oct-02 04:41N 33°12' W 117°24'0 0.0
2017-Oct-02 03:08N 33°12' W 117°24'0 0.0
2017-Oct-02 02:59N 33°12' W 117°24'0 0.0
2017-Oct-02 02:17N 33°12' W 117°24'0 0.0
2017-Oct-02 01:59N 33°12' W 117°24'0 0.0
2017-Oct-02 01:29N 33°12' W 117°24'0 0.0
2017-Oct-02 00:47N 33°12' W 117°24'0 0.0
2017-Oct-02 00:23N 33°12' W 117°24'0 0.0
2017-Oct-01 23:53N 33°12' W 117°24'0 0.7
2017-Oct-01 23:26N 33°12' W 117°24'3 6.0
2017-Oct-01 23:00N 33°14' W 117°27'4 6.9
2017-Oct-01 22:29N 33°16' W 117°30'3 6.9
2017-Oct-01 22:00N 33°18' W 117°33'4 6.8
2017-Oct-01 21:29N 33°21' W 117°36'  
2017-Sep-28 22:20N 33°58' W 118°30'2 7.0
2017-Sep-28 21:59N 33°58' W 118°33'22 7.0
2017-Sep-28 18:55N 34°02' W 118°59'3 6.7
2017-Sep-28 18:27N 34°03' W 119°02'9 6.6
2017-Sep-28 17:08N 34°07' W 119°12'3 0.2
2017-Sep-27 23:24N 34°10' W 119°13'1 2.4
2017-Sep-27 22:50N 34°10' W 119°15'3 6.3
2017-Sep-27 22:25N 34°11' W 119°18'3 5.9
2017-Sep-27 21:58N 34°13' W 119°20'3 6.4
2017-Sep-27 21:26N 34°15' W 119°24'3 6.5
2017-Sep-27 20:58N 34°17' W 119°27'3 6.5
2017-Sep-27 20:28N 34°18' W 119°30'4 6.5
2017-Sep-27 19:54N 34°20' W 119°33'3 6.4
2017-Sep-27 19:30N 34°22' W 119°36'3 6.2
2017-Sep-27 18:58N 34°24' W 119°39'1 0.8
2017-Sep-27 17:22N 34°25' W 119°41'0 0.0
2017-Sep-27 15:16N 34°25' W 119°41'0 0.0
2017-Sep-27 14:55N 34°25' W 119°41'0 0.0
2017-Sep-27 14:19N 34°25' W 119°41'0 0.0
2017-Sep-27 12:43N 34°25' W 119°41'0 0.0
2017-Sep-27 07:25N 34°25' W 119°41'0 0.0
2017-Sep-27 04:46N 34°25' W 119°41'0 0.0
2017-Sep-27 01:58N 34°25' W 119°41'2 4.8
2017-Sep-27 01:28N 34°23' W 119°43'3 7.0
2017-Sep-27 00:59N 34°23' W 119°47'5 7.0
2017-Sep-27 00:20N 34°24' W 119°53'3 7.0
2017-Sep-26 23:57N 34°24' W 119°56'4 7.0
2017-Sep-26 23:25N 34°24' W 120°00'4 7.3
2017-Sep-26 22:55N 34°24' W 120°05'4 7.6
2017-Sep-26 22:24N 34°25' W 120°09'3 7.4
2017-Sep-26 21:56N 34°25' W 120°14'4 7.0
2017-Sep-26 21:24N 34°25' W 120°18'3 7.0
2017-Sep-26 21:00N 34°25' W 120°21'3 6.8
2017-Sep-26 20:29N 34°26' W 120°26'3 6.3
2017-Sep-26 20:00N 34°27' W 120°29'5 6.3
2017-Sep-26 19:09N 34°30' W 120°35'1 6.7
2017-Sep-26 18:59N 34°30' W 120°36'12 6.5
2017-Sep-26 17:09N 34°41' W 120°41'1 7.3
2017-Sep-26 16:59N 34°43' W 120°41'3 7.3
2017-Sep-26 16:30N 34°46' W 120°42'4 7.5
2017-Sep-26 15:58N 34°50' W 120°42'3 6.9
2017-Sep-26 15:30N 34°53' W 120°43'13 5.7
2017-Sep-26 13:14N 35°06' W 120°44'2 6.6
2017-Sep-26 12:59N 35°08' W 120°44'105 2.2
2017-Sep-24 13:02N 36°36' W 121°54'0 0.0
2017-Sep-24 12:56N 36°36' W 121°54'0 0.0
2017-Sep-24 11:32N 36°36' W 121°54'0 0.0
2017-Sep-24 11:26N 36°36' W 121°54'0 0.0
2017-Sep-24 10:44N 36°36' W 121°54'0 0.0
2017-Sep-24 10:02N 36°36' W 121°54'0 0.0
2017-Sep-24 06:02N 36°36' W 121°54'0 0.0
2017-Sep-23 21:46N 36°36' W 121°54'0 0.0
2017-Sep-23 21:16N 36°36' W 121°54'0 0.0
2017-Sep-23 20:28N 36°36' W 121°54'0 0.0
2017-Sep-23 19:40N 36°36' W 121°54'  

Dump ship's entire track history